createdAt,value
2018-10-06T00:00:21.226Z,8.60
2018-10-06T00:02:50.001Z,9.73
2018-10-06T00:05:18.474Z,9.70
2018-10-06T00:07:46.865Z,10.30
2018-10-06T00:10:15.308Z,10.07
2018-10-06T00:12:43.760Z,9.70
2018-10-06T00:15:12.189Z,10.00
2018-10-06T00:17:40.866Z,10.57
2018-10-06T00:20:09.801Z,9.80
2018-10-06T00:22:38.219Z,9.50
2018-10-06T00:25:06.939Z,9.77
2018-10-06T00:27:35.506Z,10.37
2018-10-06T00:30:03.847Z,9.60
2018-10-06T00:32:32.388Z,9.80
2018-10-06T00:35:00.701Z,10.27
2018-10-06T00:37:29.200Z,8.97
2018-10-06T00:39:57.730Z,8.60
2018-10-06T00:42:26.125Z,8.67
2018-10-06T00:44:54.619Z,9.60
2018-10-06T00:47:23.147Z,9.93
2018-10-06T00:49:51.397Z,10.63
2018-10-06T00:52:19.873Z,10.30
2018-10-06T00:54:48.292Z,9.80
2018-10-06T00:57:16.818Z,9.80
2018-10-06T00:59:45.169Z,10.03
2018-10-06T01:02:13.531Z,10.73
2018-10-06T01:04:41.896Z,10.03
2018-10-06T01:07:10.297Z,10.70
2018-10-06T01:09:38.666Z,9.23
2018-10-06T01:12:07.114Z,9.10
2018-10-06T01:14:35.449Z,9.30
2018-10-06T01:17:03.936Z,9.00
2018-10-06T01:19:32.381Z,10.13
2018-10-06T01:22:00.738Z,11.77
2018-10-06T01:24:29.067Z,10.13
2018-10-06T01:26:57.526Z,11.10
2018-10-06T01:29:27.806Z,10.87
2018-10-06T01:31:56.306Z,11.67
2018-10-06T01:34:25.173Z,11.17
2018-10-06T01:36:53.541Z,9.57
2018-10-06T01:39:22.000Z,11.60
2018-10-06T01:41:50.451Z,9.90
2018-10-06T01:44:18.837Z,10.00
2018-10-06T01:46:47.202Z,10.67
2018-10-06T01:49:15.742Z,11.50
2018-10-06T01:51:44.261Z,11.33
2018-10-06T01:54:14.242Z,12.10
2018-10-06T01:56:42.654Z,10.40
2018-10-06T01:59:11.005Z,11.43
2018-10-06T02:01:39.387Z,10.90
2018-10-06T02:04:07.756Z,10.83
2018-10-06T02:06:36.086Z,10.63
2018-10-06T02:09:05.529Z,11.40
2018-10-06T02:11:33.967Z,10.00
2018-10-06T02:14:02.862Z,11.77
2018-10-06T02:16:31.299Z,10.67
2018-10-06T02:18:59.941Z,11.60
2018-10-06T02:21:28.377Z,10.60
2018-10-06T02:23:56.879Z,10.43
2018-10-06T02:26:25.233Z,11.43
2018-10-06T02:28:53.626Z,11.40
2018-10-06T02:31:21.998Z,11.57
2018-10-06T02:33:50.369Z,11.20
2018-10-06T02:36:18.731Z,11.13
2018-10-06T02:38:47.228Z,10.90
2018-10-06T02:41:15.701Z,10.77
2018-10-06T02:43:44.165Z,11.77
2018-10-06T02:46:12.524Z,12.27
2018-10-06T02:48:40.983Z,11.20
2018-10-06T02:51:09.448Z,11.10
2018-10-06T02:53:37.799Z,12.07
2018-10-06T02:56:06.299Z,12.70
2018-10-06T02:58:34.838Z,12.30
2018-10-06T03:01:03.171Z,11.60
2018-10-06T03:03:31.598Z,12.13
2018-10-06T03:06:00.162Z,12.10
2018-10-06T03:08:28.682Z,10.87
2018-10-06T03:10:57.234Z,12.27
2018-10-06T03:13:25.806Z,11.63
2018-10-06T03:15:54.153Z,12.47
2018-10-06T03:18:22.617Z,11.30
2018-10-06T03:20:51.006Z,11.40
2018-10-06T03:23:19.485Z,11.63
2018-10-06T03:25:48.059Z,11.20
2018-10-06T03:28:16.519Z,10.97
2018-10-06T03:30:44.931Z,11.93
2018-10-06T03:33:13.322Z,12.03
2018-10-06T03:35:41.646Z,11.37
2018-10-06T03:38:10.070Z,11.20
2018-10-06T03:40:38.483Z,10.17
2018-10-06T03:43:06.820Z,10.90
2018-10-06T03:45:35.279Z,10.67
2018-10-06T03:48:03.735Z,10.70
2018-10-06T03:50:32.157Z,10.80
2018-10-06T03:53:00.595Z,10.63
2018-10-06T03:55:28.953Z,10.80
2018-10-06T03:57:57.297Z,12.37
2018-10-06T04:00:25.762Z,12.50
2018-10-06T04:02:54.185Z,11.80
2018-10-06T04:05:22.539Z,10.73
2018-10-06T04:07:50.874Z,11.50
2018-10-06T04:10:19.409Z,10.27
2018-10-06T04:12:48.169Z,10.87
2018-10-06T04:15:16.742Z,11.77
2018-10-06T04:17:45.072Z,11.90
2018-10-06T04:20:13.486Z,12.00
2018-10-06T04:22:41.837Z,12.40
2018-10-06T04:25:10.252Z,11.93
2018-10-06T04:27:38.582Z,11.60
2018-10-06T04:30:07.675Z,11.23
2018-10-06T04:32:36.043Z,12.20
2018-10-06T04:35:04.442Z,13.40
2018-10-06T04:37:32.834Z,12.20
2018-10-06T04:40:01.179Z,12.00
2018-10-06T04:42:29.518Z,11.90
2018-10-06T04:44:58.129Z,12.03
2018-10-06T04:47:26.528Z,11.53
2018-10-06T04:49:55.055Z,12.00
2018-10-06T04:52:23.531Z,11.10
2018-10-06T04:54:51.921Z,11.20
2018-10-06T04:57:20.286Z,11.60
2018-10-06T04:59:48.698Z,11.40
2018-10-06T05:02:17.290Z,11.20
2018-10-06T05:04:45.721Z,11.13
2018-10-06T05:07:14.322Z,10.67
2018-10-06T05:09:42.742Z,11.40
2018-10-06T05:12:11.156Z,10.80
2018-10-06T05:14:39.798Z,9.90
2018-10-06T05:17:08.232Z,10.83
2018-10-06T05:19:36.958Z,12.80
2018-10-06T05:22:05.438Z,12.07
2018-10-06T05:24:33.862Z,11.30
2018-10-06T05:27:02.275Z,11.77
2018-10-06T05:29:30.834Z,11.20
2018-10-06T05:31:59.285Z,11.47
2018-10-06T05:34:27.709Z,11.90
2018-10-06T05:36:56.210Z,11.03
2018-10-06T05:39:24.558Z,12.33
2018-10-06T05:41:53.071Z,12.50
2018-10-06T05:44:21.404Z,12.90
2018-10-06T05:46:49.886Z,12.90
2018-10-06T05:49:18.266Z,11.93
2018-10-06T05:51:46.785Z,11.80
2018-10-06T05:54:15.170Z,12.23
2018-10-06T05:56:43.603Z,12.00
2018-10-06T05:59:12.125Z,12.30
2018-10-06T06:01:40.482Z,12.90
2018-10-06T06:04:08.894Z,11.23
2018-10-06T06:06:37.463Z,11.60
2018-10-06T06:09:06.621Z,10.63
2018-10-06T06:11:35.078Z,11.50
2018-10-06T06:14:03.629Z,12.10
2018-10-06T06:16:32.014Z,11.50
2018-10-06T06:19:00.444Z,10.83
2018-10-06T06:21:29.023Z,11.17
2018-10-06T06:23:57.558Z,11.03
2018-10-06T06:26:25.909Z,12.27
2018-10-06T06:28:54.307Z,11.00
2018-10-06T06:31:22.754Z,11.53
2018-10-06T06:33:51.226Z,11.73
2018-10-06T06:36:19.562Z,11.97
2018-10-06T06:38:48.170Z,11.17
2018-10-06T06:41:16.674Z,11.50
2018-10-06T06:43:45.130Z,11.63
2018-10-06T06:46:13.527Z,11.80
2018-10-06T06:48:41.901Z,12.00
2018-10-06T06:51:10.348Z,12.30
2018-10-06T06:53:38.898Z,12.50
2018-10-06T06:56:07.473Z,11.97
2018-10-06T06:58:35.857Z,11.83
2018-10-06T07:01:04.274Z,11.50
2018-10-06T07:03:32.687Z,13.13
2018-10-06T07:06:01.149Z,11.70
2018-10-06T07:08:29.534Z,11.60
2018-10-06T07:10:58.381Z,11.43
2018-10-06T07:13:26.838Z,11.50
2018-10-06T07:15:55.331Z,10.90
2018-10-06T07:18:23.769Z,12.17
2018-10-06T07:20:52.143Z,11.17
2018-10-06T07:23:20.502Z,11.70
2018-10-06T07:25:48.846Z,12.30
2018-10-06T07:28:17.211Z,11.53
2018-10-06T07:30:45.685Z,10.60
2018-10-06T07:33:14.002Z,10.50
2018-10-06T07:35:42.405Z,10.70
2018-10-06T07:38:10.930Z,10.60
2018-10-06T07:40:39.330Z,10.40
2018-10-06T07:43:07.685Z,11.10
2018-10-06T07:45:36.207Z,10.93
2018-10-06T07:48:04.667Z,11.43
2018-10-06T07:50:33.019Z,11.40
2018-10-06T07:53:01.476Z,11.60
2018-10-06T07:55:29.790Z,10.40
2018-10-06T07:57:58.241Z,11.13
2018-10-06T08:00:26.687Z,11.27
2018-10-06T08:02:55.258Z,10.60
2018-10-06T08:05:23.606Z,11.10
2018-10-06T08:07:52.006Z,11.10
2018-10-06T08:10:20.358Z,10.27
2018-10-06T08:12:48.757Z,10.53
2018-10-06T08:15:17.135Z,9.93
2018-10-06T08:17:45.520Z,9.73
2018-10-06T08:20:14.002Z,9.40
2018-10-06T08:22:42.372Z,10.17
2018-10-06T08:25:10.710Z,10.10
2018-10-06T08:27:39.097Z,9.93
2018-10-06T08:30:07.439Z,9.50
2018-10-06T08:32:35.804Z,9.70
2018-10-06T08:35:04.182Z,10.13
2018-10-06T08:37:32.543Z,9.73
2018-10-06T08:40:00.898Z,9.57
2018-10-06T08:42:29.246Z,9.47
2018-10-06T08:44:57.611Z,8.70
2018-10-06T08:47:25.985Z,10.00
2018-10-06T08:49:54.469Z,8.87
2018-10-06T08:52:22.801Z,8.40
2018-10-06T08:54:51.187Z,8.73
2018-10-06T08:57:19.902Z,8.50
2018-10-06T08:59:48.341Z,9.33
2018-10-06T09:02:16.797Z,9.10
2018-10-06T09:04:45.234Z,9.17
2018-10-06T09:07:14.422Z,7.87
2018-10-06T09:09:42.783Z,8.50
2018-10-06T09:12:11.149Z,9.30
2018-10-06T09:14:39.506Z,8.30
2018-10-06T09:17:08.030Z,7.70
2018-10-06T09:19:36.525Z,8.77
2018-10-06T09:22:04.822Z,9.87
2018-10-06T09:24:33.148Z,7.67
2018-10-06T09:27:01.684Z,8.03
2018-10-06T09:29:30.122Z,6.77
2018-10-06T09:31:58.447Z,7.10
2018-10-06T09:34:26.903Z,7.17
2018-10-06T09:36:55.275Z,7.03
2018-10-06T09:39:23.651Z,7.53
2018-10-06T09:41:53.073Z,7.73
2018-10-06T09:44:21.419Z,6.90
2018-10-06T09:46:49.961Z,7.00
2018-10-06T09:49:18.453Z,6.20
2018-10-06T09:51:46.807Z,5.90
2018-10-06T09:54:15.161Z,5.53
2018-10-06T09:56:43.693Z,3.17
2018-10-06T09:59:12.069Z,2.90
2018-10-06T10:01:45.797Z,2.03
2018-10-06T10:04:15.788Z,2.70
2018-10-06T10:06:44.143Z,2.83
2018-10-06T10:09:16.022Z,3.20
2018-10-06T10:11:44.574Z,2.60
2018-10-06T10:14:13.865Z,2.37
2018-10-06T10:16:42.299Z,2.90
2018-10-06T10:19:10.648Z,2.47
2018-10-06T10:21:39.030Z,2.60
2018-10-06T10:24:07.350Z,2.73
2018-10-06T10:26:36.697Z,2.70
2018-10-06T10:29:05.070Z,2.90
2018-10-06T10:31:33.447Z,2.60
2018-10-06T10:34:01.848Z,2.70
2018-10-06T10:36:30.409Z,2.90
2018-10-06T10:38:58.825Z,2.70
2018-10-06T10:41:27.242Z,2.43
2018-10-06T10:43:55.689Z,2.40
2018-10-06T10:46:24.031Z,3.00
2018-10-06T10:48:52.469Z,5.40
2018-10-06T10:51:21.041Z,3.07
2018-10-06T10:53:49.462Z,2.40
2018-10-06T10:56:17.890Z,2.50
2018-10-06T10:58:46.273Z,2.30
2018-10-06T11:01:14.635Z,3.20
2018-10-06T11:03:43.534Z,2.80
2018-10-06T11:06:11.959Z,2.43
2018-10-06T11:08:40.410Z,2.83
2018-10-06T11:11:08.890Z,2.80
2018-10-06T11:13:37.538Z,2.70
2018-10-06T11:16:06.005Z,3.73
2018-10-06T11:18:34.461Z,2.70
2018-10-06T11:21:02.822Z,2.50
2018-10-06T11:23:31.217Z,2.50
2018-10-06T11:26:00.109Z,2.60
2018-10-06T11:28:28.494Z,2.80
2018-10-06T11:30:56.846Z,2.50
2018-10-06T11:33:25.285Z,3.13
2018-10-06T11:35:53.836Z,3.30
2018-10-06T11:38:22.295Z,4.13
2018-10-06T11:40:50.700Z,2.63
2018-10-06T11:43:19.098Z,3.20
2018-10-06T11:45:47.562Z,3.00
2018-10-06T11:48:15.991Z,2.67
2018-10-06T11:50:45.249Z,2.93
2018-10-06T11:53:14.169Z,3.00
2018-10-06T11:55:42.570Z,3.07
2018-10-06T11:58:11.021Z,3.87
2018-10-06T12:00:39.546Z,3.50
2018-10-06T12:03:08.019Z,2.70
2018-10-06T12:05:36.409Z,2.80
2018-10-06T12:08:05.030Z,2.60
2018-10-06T12:10:33.447Z,2.73
2018-10-06T12:13:01.829Z,2.70
2018-10-06T12:15:30.539Z,2.83
2018-10-06T12:17:58.990Z,2.63
2018-10-06T12:20:27.390Z,2.83
2018-10-06T12:22:56.134Z,2.70
2018-10-06T12:25:24.866Z,3.60
2018-10-06T12:27:53.346Z,3.20
2018-10-06T12:30:22.074Z,4.37
2018-10-06T12:32:51.208Z,3.17
2018-10-06T12:35:20.023Z,3.20
2018-10-06T12:37:48.934Z,3.00
2018-10-06T12:40:17.318Z,3.10
2018-10-06T12:42:45.734Z,3.97
2018-10-06T12:45:14.098Z,3.50
2018-10-06T12:47:42.465Z,3.80
2018-10-06T12:50:12.168Z,4.20
2018-10-06T12:52:40.549Z,3.47
2018-10-06T12:55:09.043Z,3.27
2018-10-06T12:57:37.466Z,3.40
2018-10-06T13:00:06.501Z,3.27
2018-10-06T13:02:35.221Z,3.53
2018-10-06T13:05:03.690Z,3.50
2018-10-06T13:07:32.108Z,3.80
2018-10-06T13:10:00.682Z,4.03
2018-10-06T13:12:29.221Z,3.87
2018-10-06T13:14:57.711Z,4.43
2018-10-06T13:17:26.196Z,3.73
2018-10-06T13:19:54.569Z,3.20
2018-10-06T13:22:22.974Z,3.90
2018-10-06T13:24:51.327Z,4.07
2018-10-06T13:27:19.918Z,3.40
2018-10-06T13:29:48.512Z,3.63
2018-10-06T13:32:16.981Z,3.07
2018-10-06T13:34:45.606Z,3.70
2018-10-06T13:37:14.061Z,3.73
2018-10-06T13:39:42.509Z,4.17
2018-10-06T13:42:10.954Z,3.40
2018-10-06T13:44:39.480Z,3.20
2018-10-06T13:47:07.934Z,3.27
2018-10-06T13:49:36.511Z,3.23
2018-10-06T13:52:04.892Z,2.80
2018-10-06T13:54:33.454Z,3.50
2018-10-06T13:57:02.029Z,3.07
2018-10-06T13:59:30.481Z,2.60
2018-10-06T14:01:58.795Z,2.97
2018-10-06T14:04:27.233Z,2.93
2018-10-06T14:06:55.676Z,2.97
2018-10-06T14:09:24.147Z,3.40
2018-10-06T14:11:52.498Z,3.30
2018-10-06T14:14:20.946Z,4.20
2018-10-06T14:16:49.378Z,3.30
2018-10-06T14:19:17.799Z,3.20
2018-10-06T14:21:46.159Z,3.57
2018-10-06T14:24:21.561Z,2.97
2018-10-06T14:26:50.030Z,3.30
2018-10-06T14:29:18.474Z,3.10
2018-10-06T14:31:46.882Z,3.17
2018-10-06T14:34:15.295Z,2.90
2018-10-06T14:36:43.801Z,3.03
2018-10-06T14:39:12.201Z,2.70
2018-10-06T14:41:40.679Z,2.90
2018-10-06T14:44:09.256Z,3.00
2018-10-06T14:46:37.756Z,3.50
2018-10-06T14:49:06.273Z,3.00
2018-10-06T14:51:34.645Z,3.10
2018-10-06T14:54:03.147Z,2.83
2018-10-06T14:56:31.574Z,2.50
2018-10-06T14:59:00.044Z,3.03
2018-10-06T15:01:28.380Z,2.63
2018-10-06T15:03:56.779Z,2.60
2018-10-06T15:06:25.266Z,2.90
2018-10-06T15:08:53.633Z,3.40
2018-10-06T15:11:22.080Z,3.77
2018-10-06T15:13:50.506Z,3.63
2018-10-06T15:16:18.875Z,4.10
2018-10-06T15:18:47.326Z,4.20
2018-10-06T15:21:15.776Z,4.17
2018-10-06T15:23:44.471Z,5.17
2018-10-06T15:26:12.962Z,4.07
2018-10-06T15:28:44.355Z,4.33
2018-10-06T15:31:12.829Z,3.83
2018-10-06T15:33:41.333Z,4.20
2018-10-06T15:36:09.674Z,4.73
2018-10-06T15:38:38.037Z,4.60
2018-10-06T15:41:06.393Z,4.30
2018-10-06T15:43:35.027Z,4.33
2018-10-06T15:46:03.498Z,4.53
2018-10-06T15:48:31.911Z,5.03
2018-10-06T15:51:00.311Z,5.00
2018-10-06T15:53:28.691Z,4.17
2018-10-06T15:55:57.125Z,3.80
2018-10-06T15:58:25.502Z,4.07
2018-10-06T16:00:53.860Z,4.83
2018-10-06T16:03:22.384Z,4.40
2018-10-06T16:05:50.782Z,4.77
2018-10-06T16:08:19.755Z,5.00
2018-10-06T16:10:48.138Z,4.70
2018-10-06T16:13:16.613Z,4.93
2018-10-06T16:15:45.113Z,4.57
2018-10-06T16:18:13.525Z,5.17
2018-10-06T16:20:41.989Z,5.30
2018-10-06T16:23:10.634Z,5.20
2018-10-06T16:25:39.005Z,5.30
2018-10-06T16:28:07.393Z,5.37
2018-10-06T16:30:35.818Z,4.90
2018-10-06T16:33:04.183Z,5.60
2018-10-06T16:35:32.552Z,5.50
2018-10-06T16:38:01.250Z,5.33
2018-10-06T16:40:29.728Z,5.10
2018-10-06T16:42:58.194Z,5.30
2018-10-06T16:45:26.587Z,5.40
2018-10-06T16:47:55.027Z,5.20
2018-10-06T16:50:23.473Z,5.13
2018-10-06T16:52:52.057Z,6.10
2018-10-06T16:55:20.411Z,5.87
2018-10-06T16:57:48.814Z,6.40
2018-10-06T17:00:17.349Z,5.13
2018-10-06T17:02:45.774Z,5.20
2018-10-06T17:05:14.451Z,5.40
2018-10-06T17:07:42.959Z,5.23
2018-10-06T17:10:11.550Z,5.20
2018-10-06T17:12:39.996Z,5.57
2018-10-06T17:15:08.907Z,5.03
2018-10-06T17:17:37.257Z,5.30
2018-10-06T17:20:05.722Z,5.30
2018-10-06T17:22:34.073Z,5.60
2018-10-06T17:25:02.579Z,5.57
2018-10-06T17:27:30.982Z,5.80
2018-10-06T17:29:59.407Z,5.80
2018-10-06T17:32:27.970Z,9.90
2018-10-06T17:34:56.355Z,8.83
2018-10-06T17:37:24.683Z,7.90
2018-10-06T17:39:53.183Z,16.83
2018-10-06T17:42:21.541Z,8.10
2018-10-06T17:44:50.018Z,6.50
2018-10-06T17:47:18.370Z,5.70
2018-10-06T17:49:46.875Z,5.93
2018-10-06T17:52:15.281Z,6.30
2018-10-06T17:54:43.790Z,5.63
2018-10-06T17:57:12.170Z,6.20
2018-10-06T17:59:40.760Z,6.23
2018-10-06T18:02:09.192Z,6.33
2018-10-06T18:04:38.552Z,6.60
2018-10-06T18:07:07.066Z,6.70
2018-10-06T18:09:35.519Z,7.00
2018-10-06T18:12:03.949Z,6.87
2018-10-06T18:14:32.327Z,6.87
2018-10-06T18:17:00.750Z,7.80
2018-10-06T18:19:29.148Z,6.60
2018-10-06T18:21:57.517Z,7.00
2018-10-06T18:24:25.989Z,6.57
2018-10-06T18:26:54.386Z,6.60
2018-10-06T18:29:22.898Z,5.80
2018-10-06T18:31:51.441Z,6.83
2018-10-06T18:34:19.930Z,7.90
2018-10-06T18:36:48.492Z,7.70
2018-10-06T18:39:16.847Z,7.17
2018-10-06T18:41:45.218Z,7.00
2018-10-06T18:44:13.678Z,8.40
2018-10-06T18:46:42.147Z,9.60
2018-10-06T18:49:10.546Z,9.70
2018-10-06T18:51:38.881Z,9.20
2018-10-06T18:54:07.233Z,12.90
2018-10-06T18:56:35.627Z,8.87
2018-10-06T18:59:04.001Z,7.53
2018-10-06T19:01:32.364Z,6.57
2018-10-06T19:04:00.774Z,6.87
2018-10-06T19:06:29.120Z,6.93
2018-10-06T19:08:57.562Z,7.03
2018-10-06T19:11:26.056Z,6.97
2018-10-06T19:13:54.440Z,6.87
2018-10-06T19:16:22.902Z,6.27
2018-10-06T19:18:51.222Z,7.30
2018-10-06T19:21:19.585Z,7.40
2018-10-06T19:23:47.926Z,8.00
2018-10-06T19:26:16.306Z,7.70
2018-10-06T19:28:44.734Z,7.20
2018-10-06T19:31:15.426Z,8.40
2018-10-06T19:33:44.122Z,8.57
2018-10-06T19:36:12.750Z,8.10
2018-10-06T19:38:41.090Z,8.87
2018-10-06T19:41:09.510Z,8.70
2018-10-06T19:43:38.070Z,9.00
2018-10-06T19:46:06.458Z,9.20
2018-10-06T19:48:34.966Z,9.50
2018-10-06T19:51:03.557Z,9.20
2018-10-06T19:53:31.967Z,9.53
2018-10-06T19:56:00.419Z,9.17
2018-10-06T19:58:28.917Z,10.03
2018-10-06T20:00:57.307Z,8.67
2018-10-06T20:03:26.014Z,9.40
2018-10-06T20:05:54.610Z,8.50
2018-10-06T20:08:23.100Z,9.70
2018-10-06T20:10:51.616Z,8.80
2018-10-06T20:13:20.161Z,8.70
2018-10-06T20:15:48.535Z,9.50
2018-10-06T20:18:23.616Z,7.63
2018-10-06T20:20:52.190Z,8.37
2018-10-06T20:23:20.758Z,7.17
2018-10-06T20:25:50.055Z,7.30
2018-10-06T20:28:18.470Z,7.27
2018-10-06T20:30:46.850Z,7.93
2018-10-06T20:33:15.306Z,8.73
2018-10-06T20:35:43.727Z,8.37
2018-10-06T20:38:12.170Z,7.70
2018-10-06T20:40:40.585Z,8.07
2018-10-06T20:43:09.113Z,8.87
2018-10-06T20:45:38.924Z,9.60
2018-10-06T20:48:07.294Z,8.70
2018-10-06T20:50:35.728Z,9.20
2018-10-06T20:53:04.055Z,7.93
2018-10-06T20:55:32.429Z,8.87
2018-10-06T20:58:00.758Z,8.60
2018-10-06T21:00:29.286Z,9.30
2018-10-06T21:02:57.898Z,9.93
2018-10-06T21:05:26.267Z,10.00
2018-10-06T21:07:54.697Z,8.00
2018-10-06T21:10:23.038Z,9.43
2018-10-06T21:12:51.593Z,9.07
2018-10-06T21:15:20.098Z,9.30
2018-10-06T21:17:48.494Z,9.40
2018-10-06T21:20:16.882Z,8.50
2018-10-06T21:22:45.263Z,8.80
2018-10-06T21:25:13.570Z,8.93
2018-10-06T21:27:42.062Z,8.47
2018-10-06T21:30:10.449Z,9.50
2018-10-06T21:32:38.866Z,9.03
2018-10-06T21:35:07.301Z,8.20
2018-10-06T21:37:35.633Z,8.80
2018-10-06T21:40:04.046Z,8.87
2018-10-06T21:42:32.466Z,8.70
2018-10-06T21:45:00.847Z,9.03
2018-10-06T21:47:32.444Z,9.10
2018-10-06T21:50:00.778Z,9.67
2018-10-06T21:52:29.134Z,10.17
2018-10-06T21:54:57.599Z,9.50
2018-10-06T21:57:25.961Z,9.43
2018-10-06T21:59:54.332Z,9.10
2018-10-06T22:02:22.769Z,10.07
2018-10-06T22:04:51.165Z,9.03
2018-10-06T22:07:19.525Z,9.50
2018-10-06T22:09:47.959Z,8.90
2018-10-06T22:12:16.306Z,8.17
2018-10-06T22:14:44.738Z,9.67
2018-10-06T22:17:13.201Z,8.63
2018-10-06T22:19:41.585Z,9.53
2018-10-06T22:22:09.918Z,9.00
2018-10-06T22:24:38.330Z,8.73
2018-10-06T22:27:06.661Z,8.70
2018-10-06T22:29:34.978Z,10.40
2018-10-06T22:32:03.359Z,8.50
2018-10-06T22:34:31.848Z,9.23
2018-10-06T22:37:00.355Z,9.43
2018-10-06T22:39:28.909Z,8.87
2018-10-06T22:41:57.529Z,8.23
2018-10-06T22:44:26.083Z,8.80
2018-10-06T22:46:54.492Z,8.47
2018-10-06T22:49:22.965Z,8.73
2018-10-06T22:51:51.457Z,9.00
2018-10-06T22:54:19.877Z,8.77
2018-10-06T22:56:48.344Z,8.90
2018-10-06T22:59:16.922Z,8.17
2018-10-06T23:01:45.763Z,9.83
2018-10-06T23:04:16.491Z,9.53
2018-10-06T23:06:51.234Z,10.70
2018-10-06T23:09:20.264Z,11.13
2018-10-06T23:11:48.669Z,9.37
2018-10-06T23:14:17.140Z,10.97
2018-10-06T23:16:45.552Z,10.70
2018-10-06T23:19:14.983Z,10.30
2018-10-06T23:21:43.965Z,10.03
2018-10-06T23:24:12.334Z,10.40
2018-10-06T23:26:41.626Z,9.33
2018-10-06T23:29:10.555Z,9.77
2018-10-06T23:31:38.918Z,9.00
2018-10-06T23:34:07.367Z,10.70
2018-10-06T23:36:35.710Z,9.73
2018-10-06T23:39:04.866Z,10.07
2018-10-06T23:41:33.201Z,8.93
2018-10-06T23:44:01.651Z,9.10
2018-10-06T23:46:30.097Z,9.00
2018-10-06T23:48:58.581Z,8.90
2018-10-06T23:51:27.062Z,8.20
2018-10-06T23:53:55.467Z,9.33
2018-10-06T23:56:23.857Z,9.47
2018-10-06T23:58:52.322Z,9.40
